createdAt,value
2022-08-26T00:02:00.691Z,99650.97
2022-08-26T00:04:29.485Z,99655.28
2022-08-26T00:06:58.178Z,99649.75
2022-08-26T00:09:27.810Z,99652.97
2022-08-26T00:11:56.589Z,99656.19
2022-08-26T00:14:31.248Z,99659.28
2022-08-26T00:17:01.580Z,99651.38
2022-08-26T00:19:29.941Z,99649.53
2022-08-26T00:21:58.384Z,99652.66
2022-08-26T00:24:26.930Z,99641.31
2022-08-26T00:26:55.222Z,99653.00
2022-08-26T00:29:23.450Z,99643.72
2022-08-26T00:31:52.213Z,99652.25
2022-08-26T00:34:22.024Z,99646.00
2022-08-26T00:36:52.037Z,99644.47
2022-08-26T00:39:21.287Z,99634.66
2022-08-26T00:41:50.628Z,99642.03
2022-08-26T00:44:19.745Z,99637.31
2022-08-26T00:46:52.268Z,99649.91
2022-08-26T00:49:26.561Z,99651.38
2022-08-26T00:52:00.322Z,99647.47
2022-08-26T00:54:34.661Z,99640.53
2022-08-26T00:57:08.741Z,99644.41
2022-08-26T00:59:46.866Z,99644.38
2022-08-26T01:02:20.798Z,99650.56
2022-08-26T01:04:55.521Z,99657.66
2022-08-26T01:07:26.219Z,99651.78
2022-08-26T01:09:55.922Z,99650.69
2022-08-26T01:12:26.288Z,99642.84
2022-08-26T01:14:54.691Z,99645.59
2022-08-26T01:17:23.089Z,99644.50
2022-08-26T01:19:55.535Z,99634.06
2022-08-26T01:22:28.852Z,99634.03
2022-08-26T01:24:59.922Z,99641.84
2022-08-26T01:27:32.969Z,99633.66
2022-08-26T01:30:03.509Z,99626.72
2022-08-26T01:32:34.430Z,99621.63
2022-08-26T01:35:03.691Z,99625.88
2022-08-26T01:37:37.271Z,99626.63
2022-08-26T01:40:18.547Z,99631.75
2022-08-26T01:42:49.250Z,99623.53
2022-08-26T01:45:22.411Z,99627.78
2022-08-26T01:47:57.183Z,99626.91
2022-08-26T01:50:30.726Z,99612.91
2022-08-26T01:53:02.475Z,99613.31
2022-08-26T01:55:34.137Z,99619.94
2022-08-26T01:58:06.367Z,99622.69
2022-08-26T02:00:35.924Z,99612.13
2022-08-26T02:03:18.154Z,99607.16
2022-08-26T02:05:48.777Z,99623.53
2022-08-26T02:08:24.859Z,99621.19
2022-08-26T02:10:55.807Z,99613.47
2022-08-26T02:13:27.883Z,99612.78
2022-08-26T02:15:56.569Z,99608.13
2022-08-26T02:18:26.401Z,99617.53
2022-08-26T02:20:57.237Z,99614.44
2022-08-26T02:23:26.278Z,99611.00
2022-08-26T02:26:01.438Z,99612.97
2022-08-26T02:28:33.121Z,99613.78
2022-08-26T02:31:01.778Z,99605.94
2022-08-26T02:33:31.205Z,99608.28
2022-08-26T02:36:00.491Z,99609.06
2022-08-26T02:38:29.638Z,99621.91
2022-08-26T02:40:59.186Z,99618.78
2022-08-26T02:43:31.291Z,99610.59
2022-08-26T02:46:02.393Z,99609.34
2022-08-26T02:48:31.324Z,99605.53
2022-08-26T02:51:01.851Z,99617.97
2022-08-26T02:53:31.827Z,99615.97
2022-08-26T02:56:05.475Z,99610.50
2022-08-26T02:58:35.275Z,99628.03
2022-08-26T03:01:04.959Z,99620.63
2022-08-26T03:03:34.094Z,99619.91
2022-08-26T03:06:02.428Z,99622.63
2022-08-26T03:08:30.692Z,99623.03
2022-08-26T03:10:59.322Z,99626.47
2022-08-26T03:13:31.323Z,99627.28
2022-08-26T03:16:02.443Z,99620.25
2022-08-26T03:18:30.861Z,99622.94
2022-08-26T03:20:59.332Z,99623.69
2022-08-26T03:23:28.035Z,99622.88
2022-08-26T03:25:56.866Z,99624.72
2022-08-26T03:28:27.041Z,99613.34
2022-08-26T03:30:57.166Z,99627.97
2022-08-26T03:33:26.489Z,99634.50
2022-08-26T03:35:55.712Z,99622.28
2022-08-26T03:38:26.322Z,99619.03
2022-08-26T03:40:55.632Z,99624.00
2022-08-26T03:43:26.831Z,99614.16
2022-08-26T03:45:56.572Z,99617.50
2022-08-26T03:48:25.486Z,99622.41
2022-08-26T03:50:53.630Z,99622.31
2022-08-26T03:53:21.783Z,99612.06
2022-08-26T03:55:51.822Z,99622.09
2022-08-26T03:58:20.811Z,99620.59
2022-08-26T04:00:50.111Z,99614.97
2022-08-26T04:03:40.710Z,99626.63
2022-08-26T04:06:09.313Z,99627.41
2022-08-26T04:08:37.768Z,99623.59
2022-08-26T04:11:07.944Z,99631.22
2022-08-26T04:13:38.271Z,99628.06
2022-08-26T04:16:06.991Z,99634.81
2022-08-26T04:18:38.248Z,99636.97
2022-08-26T04:21:15.315Z,99638.94
2022-08-26T04:23:47.443Z,99636.81
2022-08-26T04:26:16.519Z,99636.06
2022-08-26T04:28:44.680Z,99638.03
2022-08-26T04:31:14.808Z,99635.28
2022-08-26T04:33:45.556Z,99644.19
2022-08-26T04:36:15.067Z,99636.06
2022-08-26T04:38:43.208Z,99647.41
2022-08-26T04:41:15.097Z,99649.97
2022-08-26T04:43:46.551Z,99653.81
2022-08-26T04:46:18.930Z,99657.66
2022-08-26T04:48:48.965Z,99659.63
2022-08-26T04:51:17.191Z,99654.31
2022-08-26T04:53:46.085Z,99656.88
2022-08-26T04:56:15.631Z,99655.16
2022-08-26T04:58:43.843Z,99657.03
2022-08-26T05:01:12.096Z,99656.53
2022-08-26T05:03:41.384Z,99654.09
2022-08-26T05:06:12.400Z,99654.22
2022-08-26T05:08:41.154Z,99645.78
2022-08-26T05:11:10.294Z,99636.16
2022-08-26T05:13:39.297Z,99642.63
2022-08-26T05:16:11.606Z,99647.53
2022-08-26T05:18:40.987Z,99642.66
2022-08-26T05:21:20.219Z,99646.75
2022-08-26T05:23:51.325Z,99647.59
2022-08-26T05:26:23.105Z,99651.41
2022-08-26T05:28:54.877Z,99657.38
2022-08-26T05:31:34.388Z,99654.50
2022-08-26T05:34:04.776Z,99660.88
2022-08-26T05:36:37.136Z,99657.66
2022-08-26T05:39:07.648Z,99662.81
2022-08-26T05:41:41.593Z,99664.97
2022-08-26T05:44:11.986Z,99666.56
2022-08-26T05:46:41.709Z,99665.22
2022-08-26T05:49:12.475Z,99664.69
2022-08-26T05:51:46.465Z,99657.34
2022-08-26T05:54:21.973Z,99659.06
2022-08-26T05:56:50.588Z,99660.50
2022-08-26T05:59:24.518Z,99663.75
2022-08-26T06:01:54.867Z,99660.19
2022-08-26T06:04:26.783Z,99654.81
2022-08-26T06:07:00.576Z,99669.34
2022-08-26T06:09:28.811Z,99665.47
2022-08-26T06:11:58.934Z,99675.75
2022-08-26T06:14:27.162Z,99676.50
2022-08-26T06:16:55.519Z,99676.81
2022-08-26T06:19:24.413Z,99687.53
2022-08-26T06:21:54.743Z,99684.63
2022-08-26T06:24:41.966Z,99687.63
2022-08-26T06:27:15.154Z,99699.44
2022-08-26T06:29:43.639Z,99710.44
2022-08-26T06:32:11.851Z,99718.00
2022-08-26T06:34:40.254Z,99716.00
2022-08-26T06:37:09.013Z,99710.53
2022-08-26T06:39:41.175Z,99716.16
2022-08-26T06:42:11.784Z,99714.34
2022-08-26T06:44:41.120Z,99715.25
2022-08-26T06:47:09.468Z,99731.81
2022-08-26T06:49:38.368Z,99735.56
2022-08-26T06:52:08.146Z,99726.19
2022-08-26T06:54:37.176Z,99726.09
2022-08-26T06:57:08.914Z,99725.19
2022-08-26T06:59:37.222Z,99728.59
2022-08-26T07:02:06.259Z,99728.47
2022-08-26T07:04:36.890Z,99731.53
2022-08-26T07:07:05.424Z,99737.66
2022-08-26T07:09:35.448Z,99728.53
2022-08-26T07:12:06.924Z,99734.13
2022-08-26T07:14:37.370Z,99737.13
2022-08-26T07:17:07.345Z,99737.00
2022-08-26T07:19:38.270Z,99738.78
2022-08-26T07:22:08.575Z,99735.94
2022-08-26T07:24:40.428Z,99748.50
2022-08-26T07:27:12.999Z,99754.22
2022-08-26T07:29:43.569Z,99754.53
2022-08-26T07:32:13.359Z,99748.97
2022-08-26T07:34:42.206Z,99751.09
2022-08-26T07:37:10.741Z,99752.16
2022-08-26T07:39:40.387Z,99761.06
2022-08-26T07:42:10.130Z,99756.56
2022-08-26T07:44:39.787Z,99745.31
2022-08-26T07:47:25.276Z,99748.78
2022-08-26T07:49:55.197Z,99746.38
2022-08-26T07:52:26.584Z,99739.88
2022-08-26T07:54:55.615Z,99739.38
2022-08-26T07:57:24.320Z,99734.22
2022-08-26T07:59:54.043Z,99725.88
2022-08-26T08:02:26.290Z,99725.44
2022-08-26T08:04:54.705Z,99729.00
2022-08-26T08:07:25.748Z,99723.66
2022-08-26T08:10:11.513Z,99723.13
2022-08-26T08:12:40.382Z,99725.34
2022-08-26T08:15:11.639Z,99726.38
2022-08-26T08:17:43.484Z,99718.63
2022-08-26T08:20:13.550Z,99723.72
2022-08-26T08:22:42.667Z,99721.00
2022-08-26T08:25:12.456Z,99720.84
2022-08-26T08:27:42.525Z,99721.94
2022-08-26T08:30:13.859Z,99718.25
2022-08-26T08:32:44.582Z,99716.41
2022-08-26T08:35:14.699Z,99715.97
2022-08-26T08:37:44.381Z,99715.19
2022-08-26T08:40:18.494Z,99713.19
2022-08-26T08:45:26.984Z,99707.81
2022-08-26T08:47:58.943Z,99712.94
2022-08-26T08:50:31.418Z,99707.28
2022-08-26T08:53:13.727Z,99709.38
2022-08-26T09:03:31.090Z,99714.69
2022-08-26T09:06:02.634Z,99706.31
2022-08-26T09:08:35.860Z,99708.34
2022-08-26T09:11:05.361Z,99698.34
2022-08-26T09:13:35.721Z,99704.50
2022-08-26T09:16:08.380Z,99711.22
2022-08-26T09:19:02.916Z,99701.31
2022-08-26T09:21:32.418Z,99710.41
2022-08-26T09:24:01.505Z,99700.88
2022-08-26T09:26:31.876Z,99699.03
2022-08-26T09:29:02.576Z,99707.19
2022-08-26T09:31:33.663Z,99711.31
2022-08-26T09:34:17.241Z,99701.59
2022-08-26T09:36:49.219Z,99703.31
2022-08-26T09:39:30.430Z,99701.31
2022-08-26T09:42:09.738Z,99711.72
2022-08-26T09:44:56.689Z,99707.47
2022-08-26T09:47:28.604Z,99711.03
2022-08-26T09:50:09.459Z,99712.34
2022-08-26T09:52:40.642Z,99714.84
2022-08-26T09:55:15.672Z,99719.09
2022-08-26T09:57:51.228Z,99714.19
2022-08-26T10:00:29.111Z,99723.59
2022-08-26T10:02:58.310Z,99715.06
2022-08-26T10:05:41.089Z,99723.59
2022-08-26T10:08:22.988Z,99713.75
2022-08-26T10:10:53.160Z,99718.03
2022-08-26T10:13:27.998Z,99724.06
2022-08-26T10:16:05.614Z,99715.59
2022-08-26T10:18:37.038Z,99717.84
2022-08-26T10:21:12.064Z,99717.44
2022-08-26T10:23:43.945Z,99713.78
2022-08-26T10:26:17.569Z,99712.19
2022-08-26T10:28:54.192Z,99712.63
2022-08-26T10:31:28.947Z,99705.97
2022-08-26T10:34:00.443Z,99705.84
2022-08-26T10:37:14.819Z,99698.47
2022-08-26T10:39:55.246Z,99698.19
2022-08-26T10:42:35.517Z,99697.09
2022-08-26T10:45:15.013Z,99705.72
2022-08-26T10:47:50.865Z,99702.47
2022-08-26T10:50:21.043Z,99700.03
2022-08-26T10:53:03.194Z,99692.56
2022-08-26T10:55:37.388Z,99687.91
2022-08-26T10:58:26.725Z,99690.31
2022-08-26T11:01:23.268Z,99702.53
2022-08-26T11:03:58.877Z,99698.44
2022-08-26T11:06:29.775Z,99694.72
2022-08-26T11:09:02.681Z,99692.06
2022-08-26T11:11:51.235Z,99690.94
2022-08-26T11:14:41.016Z,99685.09
2022-08-26T11:17:58.436Z,99680.53
2022-08-26T11:20:41.556Z,99686.91
2022-08-26T11:23:41.685Z,99682.78
2022-08-26T11:26:35.852Z,99679.13
2022-08-26T11:29:12.044Z,99678.47
2022-08-26T11:31:56.553Z,99675.13
2022-08-26T11:34:52.235Z,99675.41
2022-08-26T11:39:57.312Z,99674.66
2022-08-26T11:42:36.957Z,99679.13
2022-08-26T11:45:18.584Z,99683.78
2022-08-26T11:47:49.366Z,99682.06
2022-08-26T11:50:21.561Z,99684.03
2022-08-26T11:52:54.075Z,99683.34
2022-08-26T11:55:23.478Z,99677.69
2022-08-26T11:57:57.322Z,99676.00
2022-08-26T12:00:33.399Z,99675.19
2022-08-26T12:03:07.635Z,99669.09
2022-08-26T12:05:43.907Z,99670.56
2022-08-26T12:08:17.626Z,99665.00
2022-08-26T12:10:46.219Z,99664.16
2022-08-26T12:13:23.296Z,99663.91
2022-08-26T12:15:55.921Z,99660.91
2022-08-26T12:18:29.511Z,99659.38
2022-08-26T12:21:01.487Z,99651.91
2022-08-26T12:23:41.770Z,99652.31
2022-08-26T12:26:20.626Z,99653.34
2022-08-26T12:28:53.607Z,99644.94
2022-08-26T12:31:25.278Z,99643.72
2022-08-26T12:33:54.234Z,99644.38
2022-08-26T12:36:28.545Z,99640.59
2022-08-26T12:38:58.563Z,99642.63
2022-08-26T12:41:43.855Z,99639.31
2022-08-26T12:44:54.247Z,99637.91
2022-08-26T12:47:32.704Z,99633.56
2022-08-26T12:50:18.412Z,99637.94
2022-08-26T12:52:57.530Z,99628.56
2022-08-26T12:55:36.631Z,99628.38
2022-08-26T12:58:15.278Z,99626.66
2022-08-26T13:00:46.384Z,99621.66
2022-08-26T13:03:32.689Z,99627.22
2022-08-26T13:06:17.095Z,99617.81
2022-08-26T13:08:48.631Z,99626.03
2022-08-26T13:11:20.801Z,99621.97
2022-08-26T13:13:51.768Z,99627.91
2022-08-26T13:16:22.199Z,99628.72
2022-08-26T13:18:52.541Z,99626.88
2022-08-26T13:21:22.778Z,99629.81
2022-08-26T13:23:51.946Z,99624.28
2022-08-26T13:26:20.553Z,99625.13
2022-08-26T13:29:01.549Z,99631.91
2022-08-26T13:31:34.650Z,99634.06
2022-08-26T13:34:03.664Z,99623.31
2022-08-26T13:36:32.049Z,99624.44
2022-08-26T13:39:00.753Z,99623.84
2022-08-26T13:41:29.133Z,99632.53
2022-08-26T13:43:58.884Z,99621.50
2022-08-26T13:46:28.293Z,99619.63
2022-08-26T13:48:58.593Z,99619.31
2022-08-26T13:51:28.653Z,99617.00
2022-08-26T13:53:57.501Z,99622.28
2022-08-26T13:56:27.523Z,99618.09
2022-08-26T13:58:56.400Z,99610.06
2022-08-26T14:01:25.340Z,99610.94
2022-08-26T14:03:53.580Z,99606.88
2022-08-26T14:06:23.884Z,99600.59
2022-08-26T14:08:52.040Z,99612.94
2022-08-26T14:11:20.619Z,99600.50
2022-08-26T14:13:48.785Z,99608.56
2022-08-26T14:16:23.147Z,99610.19
2022-08-26T14:18:51.781Z,99607.75
2022-08-26T14:21:20.662Z,99611.31
2022-08-26T14:23:50.292Z,99613.63
2022-08-26T14:26:28.443Z,99619.34
2022-08-26T14:28:59.128Z,99621.25
2022-08-26T14:31:29.337Z,99614.72
2022-08-26T14:33:59.839Z,99614.47
2022-08-26T14:36:32.429Z,99617.59
2022-08-26T14:39:05.071Z,99625.06
2022-08-26T14:41:34.370Z,99627.16
2022-08-26T14:44:05.792Z,99626.59
2022-08-26T14:46:43.769Z,99626.59
2022-08-26T14:49:12.125Z,99627.28
2022-08-26T14:51:41.032Z,99638.03
2022-08-26T14:54:14.869Z,99645.19
2022-08-26T14:56:47.267Z,99633.09
2022-08-26T14:59:17.685Z,99643.44
2022-08-26T15:01:46.474Z,99640.47
2022-08-26T15:04:14.951Z,99642.34
2022-08-26T15:06:43.304Z,99646.97
2022-08-26T15:09:13.438Z,99652.13
2022-08-26T15:11:41.571Z,99646.28
2022-08-26T15:14:14.698Z,99641.44
2022-08-26T15:16:48.040Z,99644.22
2022-08-26T15:19:16.553Z,99652.78
2022-08-26T15:21:45.757Z,99652.91
2022-08-26T15:24:17.296Z,99655.00
2022-08-26T15:26:46.810Z,99652.66
2022-08-26T15:29:15.516Z,99658.63
2022-08-26T15:31:43.850Z,99654.44
2022-08-26T15:34:16.694Z,99653.00
2022-08-26T15:36:46.982Z,99663.00
2022-08-26T15:39:18.260Z,99653.13
2022-08-26T15:41:46.503Z,99648.16
2022-08-26T15:44:17.945Z,99651.22
2022-08-26T15:46:46.750Z,99644.28
2022-08-26T15:49:17.505Z,99641.75
2022-08-26T15:51:50.381Z,99644.63
2022-08-26T15:54:22.488Z,99646.72
2022-08-26T15:56:52.446Z,99649.97
2022-08-26T15:59:22.509Z,99647.91
2022-08-26T16:01:50.863Z,99645.03
2022-08-26T16:04:19.122Z,99648.75
2022-08-26T16:06:50.434Z,99651.66
2022-08-26T16:09:21.322Z,99655.97
2022-08-26T16:11:50.430Z,99664.31
2022-08-26T16:14:18.578Z,99661.75
2022-08-26T16:16:47.234Z,99660.81
2022-08-26T16:19:15.542Z,99665.31
2022-08-26T16:21:44.736Z,99671.25
2022-08-26T16:24:13.167Z,99678.94
2022-08-26T16:26:45.340Z,99675.06
2022-08-26T16:29:15.544Z,99671.31
2022-08-26T16:36:35.655Z,99675.59
2022-08-26T16:39:03.943Z,99680.41
2022-08-26T16:41:32.894Z,99689.94
2022-08-26T16:44:02.830Z,99695.06
2022-08-26T16:46:31.381Z,99698.50
2022-08-26T16:49:03.688Z,99699.56
2022-08-26T16:51:38.080Z,99700.94
2022-08-26T16:54:08.830Z,99716.66
2022-08-26T16:56:37.892Z,99713.41
2022-08-26T16:59:11.743Z,99714.41
2022-08-26T17:01:40.093Z,99717.69
2022-08-26T17:04:08.373Z,99724.06
2022-08-26T17:06:36.642Z,99721.22
2022-08-26T17:09:05.517Z,99722.16
2022-08-26T17:11:34.219Z,99730.38
2022-08-26T17:14:02.967Z,99731.56
2022-08-26T17:16:33.400Z,99732.81
2022-08-26T17:19:01.780Z,99739.06
2022-08-26T17:21:30.151Z,99735.09
2022-08-26T17:23:58.609Z,99745.22
2022-08-26T17:26:27.113Z,99751.13
2022-08-26T17:28:56.047Z,99744.53
2022-08-26T17:31:25.206Z,99747.28
2022-08-26T17:33:55.581Z,99748.31
2022-08-26T17:36:27.521Z,99754.28
2022-08-26T17:38:57.563Z,99743.44
2022-08-26T17:41:26.431Z,99749.19
2022-08-26T17:43:55.067Z,99745.09
2022-08-26T17:46:23.638Z,99751.38
2022-08-26T17:48:51.803Z,99750.75
2022-08-26T17:51:23.563Z,99756.34
2022-08-26T17:53:52.671Z,99759.09
2022-08-26T17:56:24.271Z,99752.06
2022-08-26T17:58:53.944Z,99756.91
2022-08-26T18:01:26.106Z,99764.75
2022-08-26T18:04:00.091Z,99765.16
2022-08-26T18:06:31.679Z,99759.69
2022-08-26T18:09:00.967Z,99770.22
2022-08-26T18:11:29.982Z,99768.38
2022-08-26T18:13:58.195Z,99770.75
2022-08-26T18:16:26.564Z,99773.63
2022-08-26T18:18:55.330Z,99776.19
2022-08-26T18:21:25.856Z,99779.19
2022-08-26T18:23:56.421Z,99773.09
2022-08-26T18:26:27.906Z,99773.38
2022-08-26T18:28:57.384Z,99774.22
2022-08-26T18:31:26.160Z,99771.19
2022-08-26T18:33:54.497Z,99770.72
2022-08-26T18:36:25.628Z,99769.56
2022-08-26T18:38:56.022Z,99764.59
2022-08-26T18:41:27.110Z,99755.94
2022-08-26T18:43:56.091Z,99756.53
2022-08-26T18:46:26.150Z,99755.75
2022-08-26T18:48:54.880Z,99753.78
2022-08-26T18:51:25.316Z,99750.81
2022-08-26T18:53:54.278Z,99750.66
2022-08-26T18:56:24.278Z,99754.16
2022-08-26T18:58:52.698Z,99757.47
2022-08-26T19:01:25.505Z,99768.84
2022-08-26T19:03:55.852Z,99767.22
2022-08-26T19:06:25.355Z,99765.63
2022-08-26T19:08:53.936Z,99767.19
2022-08-26T19:11:32.484Z,99771.84
2022-08-26T19:14:07.792Z,99774.94
2022-08-26T19:16:37.500Z,99769.81
2022-08-26T19:19:07.090Z,99771.94
2022-08-26T19:21:37.079Z,99769.56
2022-08-26T19:24:09.388Z,99760.94
2022-08-26T19:26:39.311Z,99764.50
2022-08-26T19:29:07.773Z,99763.44
2022-08-26T19:31:36.503Z,99763.63
2022-08-26T19:34:05.467Z,99759.63
2022-08-26T19:36:34.520Z,99767.91
2022-08-26T19:39:07.665Z,99759.09
2022-08-26T19:41:40.807Z,99769.44
2022-08-26T19:44:13.037Z,99764.22
2022-08-26T19:46:41.747Z,99762.78
2022-08-26T19:49:09.877Z,99764.84
2022-08-26T19:51:38.170Z,99771.16
2022-08-26T19:54:06.629Z,99775.06
2022-08-26T19:56:36.643Z,99767.31
2022-08-26T19:59:06.143Z,99770.88
2022-08-26T20:01:34.421Z,99769.78
2022-08-26T20:04:03.023Z,99767.84
2022-08-26T20:06:31.488Z,99771.38
2022-08-26T20:08:59.726Z,99770.25
2022-08-26T20:11:28.218Z,99771.41
2022-08-26T20:13:57.231Z,99771.78
2022-08-26T20:16:26.994Z,99767.91
2022-08-26T20:19:12.616Z,99760.88
2022-08-26T20:21:42.610Z,99757.84
2022-08-26T20:24:13.653Z,99763.34
2022-08-26T20:26:43.675Z,99769.47
2022-08-26T20:29:13.680Z,99767.84
2022-08-26T20:31:44.222Z,99777.94
2022-08-26T20:34:13.332Z,99774.03
2022-08-26T20:36:44.662Z,99771.28
2022-08-26T20:39:13.148Z,99772.88
2022-08-26T20:41:41.614Z,99775.25
2022-08-26T20:44:10.816Z,99772.16
2022-08-26T20:46:39.004Z,99765.50
2022-08-26T20:49:09.099Z,99771.41
2022-08-26T20:51:38.612Z,99761.69
2022-08-26T20:54:08.310Z,99760.84
2022-08-26T20:56:37.914Z,99764.41
2022-08-26T20:59:07.659Z,99775.78
2022-08-26T21:01:42.412Z,99775.09
2022-08-26T21:04:15.414Z,99771.19
2022-08-26T21:06:47.239Z,99768.41
2022-08-26T21:09:21.488Z,99762.22
2022-08-26T21:11:49.978Z,99764.97
2022-08-26T21:14:19.087Z,99763.84
2022-08-26T21:16:48.156Z,99759.66
2022-08-26T21:19:19.807Z,99763.56
2022-08-26T21:21:49.340Z,99749.59
2022-08-26T21:24:18.183Z,99753.09
2022-08-26T21:26:49.033Z,99747.56
2022-08-26T21:29:17.406Z,99736.38
2022-08-26T21:31:46.685Z,99745.06
2022-08-26T21:34:15.878Z,99736.06
2022-08-26T21:36:46.298Z,99730.31
2022-08-26T21:39:14.942Z,99735.03
2022-08-26T21:41:44.168Z,99741.78
2022-08-26T21:44:13.857Z,99744.09
2022-08-26T21:46:44.501Z,99736.66
2022-08-26T21:49:15.391Z,99740.97
2022-08-26T21:51:47.494Z,99746.06
2022-08-26T21:54:15.937Z,99749.28
2022-08-26T21:56:47.255Z,99744.22
2022-08-26T21:59:17.600Z,99747.78
2022-08-26T22:01:46.135Z,99744.28
2022-08-26T22:04:14.408Z,99752.13
2022-08-26T22:06:44.629Z,99748.66
2022-08-26T22:09:15.670Z,99748.66
2022-08-26T22:11:44.499Z,99750.16
2022-08-26T22:14:13.001Z,99747.94
2022-08-26T22:16:41.699Z,99754.25
2022-08-26T22:19:20.054Z,99752.69
2022-08-26T22:21:50.210Z,99754.97
2022-08-26T22:24:21.082Z,99752.59
2022-08-26T22:26:50.134Z,99757.22
2022-08-26T22:29:18.861Z,99755.22
2022-08-26T22:31:47.453Z,99753.31
2022-08-26T22:34:17.493Z,99752.47
2022-08-26T22:36:49.180Z,99757.81
2022-08-26T22:39:21.090Z,99760.91
2022-08-26T22:41:49.870Z,99760.91
2022-08-26T22:44:19.485Z,99754.56
2022-08-26T22:46:48.434Z,99756.50
2022-08-26T22:49:17.155Z,99753.81
2022-08-26T22:51:45.834Z,99754.56
2022-08-26T22:54:14.435Z,99745.19
2022-08-26T22:56:44.793Z,99752.13
2022-08-26T22:59:13.588Z,99748.97
2022-08-26T23:01:44.787Z,99755.13
2022-08-26T23:04:13.520Z,99751.31
2022-08-26T23:06:47.710Z,99751.34
2022-08-26T23:09:18.429Z,99766.66
2022-08-26T23:11:49.808Z,99761.59
2022-08-26T23:14:19.705Z,99758.47
2022-08-26T23:16:49.365Z,99756.88
2022-08-26T23:19:21.353Z,99751.31
2022-08-26T23:21:50.645Z,99761.25
2022-08-26T23:24:19.432Z,99752.50
2022-08-26T23:26:49.665Z,99748.50
2022-08-26T23:29:17.943Z,99751.66
2022-08-26T23:31:46.295Z,99755.53
2022-08-26T23:34:32.309Z,99749.09
2022-08-26T23:37:01.460Z,99749.91
2022-08-26T23:39:30.196Z,99742.00
2022-08-26T23:42:01.771Z,99740.13
2022-08-26T23:44:30.694Z,99741.31
2022-08-26T23:46:59.210Z,99736.25
2022-08-26T23:49:28.068Z,99735.63
2022-08-26T23:52:13.647Z,99739.81
2022-08-26T23:54:41.919Z,99738.97
2022-08-26T23:57:11.740Z,99747.53
2022-08-26T23:59:40.319Z,99742.94
